createdAt,value
2017-10-15T00:01:22.650Z,35.13
2017-10-15T00:03:50.428Z,37.80
2017-10-15T00:06:18.206Z,36.30
2017-10-15T00:08:45.950Z,39.03
2017-10-15T00:11:13.633Z,36.07
2017-10-15T00:13:41.356Z,36.20
2017-10-15T00:16:09.044Z,35.23
2017-10-15T00:18:37.539Z,34.47
2017-10-15T00:21:05.376Z,33.60
2017-10-15T00:23:33.059Z,34.30
2017-10-15T00:26:00.850Z,32.30
2017-10-15T00:28:28.577Z,31.70
2017-10-15T00:30:56.269Z,31.73
2017-10-15T00:33:24.819Z,32.33
2017-10-15T00:35:52.501Z,31.93
2017-10-15T00:38:20.203Z,30.73
2017-10-15T00:40:47.936Z,32.10
2017-10-15T00:43:15.718Z,30.97
2017-10-15T00:45:44.158Z,31.33
2017-10-15T00:48:11.879Z,29.30
2017-10-15T00:50:39.714Z,29.77
2017-10-15T00:53:07.380Z,31.30
2017-10-15T00:55:35.130Z,30.60
2017-10-15T00:58:02.940Z,30.33
2017-10-15T01:00:31.464Z,31.83
2017-10-15T01:02:59.304Z,31.47
2017-10-15T01:05:27.120Z,30.03
2017-10-15T01:07:54.918Z,28.47
2017-10-15T01:10:23.433Z,30.07
2017-10-15T01:12:51.204Z,29.83
2017-10-15T01:15:18.973Z,29.07
2017-10-15T01:17:46.699Z,30.60
2017-10-15T01:20:14.449Z,30.23
2017-10-15T01:22:42.169Z,31.43
2017-10-15T01:25:09.952Z,29.97
2017-10-15T01:27:37.712Z,31.23
2017-10-15T01:30:05.522Z,28.50
2017-10-15T01:32:33.278Z,31.50
2017-10-15T01:35:01.062Z,31.77
2017-10-15T01:37:28.830Z,31.00
2017-10-15T01:39:56.635Z,31.07
2017-10-15T01:42:24.358Z,30.13
2017-10-15T01:44:52.055Z,28.17
2017-10-15T01:47:19.855Z,28.80
2017-10-15T01:49:47.618Z,31.17
2017-10-15T01:52:15.407Z,32.60
2017-10-15T01:54:43.213Z,32.57
2017-10-15T01:57:10.969Z,31.00
2017-10-15T01:59:38.664Z,30.63
2017-10-15T02:02:06.379Z,30.10
2017-10-15T02:04:34.055Z,29.30
2017-10-15T02:07:01.822Z,27.80
2017-10-15T02:09:29.640Z,28.00
2017-10-15T02:11:57.320Z,28.90
2017-10-15T02:14:25.071Z,29.10
2017-10-15T02:16:52.843Z,29.67
2017-10-15T02:19:20.614Z,27.90
2017-10-15T02:21:48.304Z,28.27
2017-10-15T02:24:16.187Z,28.73
2017-10-15T02:26:43.987Z,28.57
2017-10-15T02:29:11.700Z,25.30
2017-10-15T02:31:39.517Z,26.27
2017-10-15T02:34:07.258Z,26.67
2017-10-15T02:36:35.061Z,28.17
2017-10-15T02:43:31.395Z,23.90
2017-10-15T02:45:59.990Z,23.33
2017-10-15T02:48:27.782Z,25.27
2017-10-15T02:50:55.513Z,23.70
2017-10-15T02:53:23.258Z,24.33
2017-10-15T02:55:50.976Z,24.13
2017-10-15T02:58:18.713Z,23.90
2017-10-15T03:00:46.542Z,25.03
2017-10-15T03:03:14.278Z,26.67
2017-10-15T03:05:42.024Z,21.63
2017-10-15T03:08:09.795Z,22.10
2017-10-15T03:10:37.575Z,20.90
2017-10-15T03:13:05.329Z,19.50
2017-10-15T03:15:33.044Z,19.90
2017-10-15T03:18:01.422Z,20.93
2017-10-15T03:20:29.211Z,19.80
2017-10-15T03:22:56.941Z,20.70
2017-10-15T03:25:24.723Z,18.13
2017-10-15T03:27:52.519Z,20.13
2017-10-15T03:30:20.249Z,19.20
2017-10-15T03:32:47.972Z,19.83
2017-10-15T03:35:15.776Z,18.00
2017-10-15T03:37:43.484Z,19.50
2017-10-15T03:40:11.983Z,19.50
2017-10-15T03:42:39.719Z,21.13
2017-10-15T03:45:07.501Z,21.53
2017-10-15T03:47:35.239Z,20.23
2017-10-15T03:50:03.127Z,19.67
2017-10-15T03:52:30.914Z,19.10
2017-10-15T03:54:58.692Z,18.10
2017-10-15T03:57:26.521Z,19.93
2017-10-15T03:59:54.301Z,20.27
2017-10-15T04:02:22.804Z,17.70
2017-10-15T04:04:50.697Z,18.40
2017-10-15T04:07:18.487Z,17.97
2017-10-15T04:09:46.307Z,19.63
2017-10-15T04:12:14.181Z,17.47
2017-10-15T04:14:42.018Z,18.77
2017-10-15T04:17:09.766Z,18.70
2017-10-15T04:19:37.615Z,17.53
2017-10-15T04:22:05.327Z,17.83
2017-10-15T04:24:33.074Z,19.70
2017-10-15T04:27:00.875Z,17.73
2017-10-15T04:29:28.632Z,17.00
2017-10-15T04:31:56.431Z,17.57
2017-10-15T04:34:24.220Z,18.67
2017-10-15T04:36:52.022Z,16.27
2017-10-15T04:39:19.833Z,17.10
2017-10-15T04:41:47.666Z,16.23
2017-10-15T04:44:15.447Z,16.33
2017-10-15T04:46:43.246Z,15.77
2017-10-15T04:49:10.978Z,17.20
2017-10-15T04:51:38.714Z,16.53
2017-10-15T04:54:06.507Z,14.53
2017-10-15T04:56:34.325Z,17.63
2017-10-15T04:59:02.131Z,15.90
2017-10-15T05:01:29.942Z,14.70
2017-10-15T05:03:57.675Z,15.07
2017-10-15T05:06:25.518Z,15.87
2017-10-15T05:08:53.257Z,14.70
2017-10-15T05:11:21.159Z,13.83
2017-10-15T05:13:48.914Z,15.43
2017-10-15T05:16:16.695Z,14.47
2017-10-15T05:18:44.618Z,14.13
2017-10-15T05:21:12.367Z,14.80
2017-10-15T05:23:40.136Z,13.83
2017-10-15T05:26:07.931Z,14.20
2017-10-15T05:28:35.963Z,12.87
2017-10-15T05:31:03.825Z,13.27
2017-10-15T05:33:32.332Z,14.00
2017-10-15T05:36:00.188Z,15.03
2017-10-15T05:38:27.932Z,13.63
2017-10-15T05:40:55.713Z,14.30
2017-10-15T05:43:23.541Z,13.63
2017-10-15T05:45:51.355Z,12.70
2017-10-15T05:48:20.041Z,14.40
2017-10-15T05:50:48.644Z,13.43
2017-10-15T05:53:16.580Z,13.30
2017-10-15T05:55:44.397Z,14.20
2017-10-15T05:58:12.201Z,14.60
2017-10-15T06:00:40.024Z,13.00
2017-10-15T06:03:07.837Z,13.37
2017-10-15T06:05:35.584Z,13.50
2017-10-15T06:08:03.382Z,13.00
2017-10-15T06:10:31.155Z,14.83
2017-10-15T06:12:59.684Z,13.30
2017-10-15T06:15:27.543Z,13.57
2017-10-15T06:17:55.268Z,13.33
2017-10-15T06:20:23.027Z,12.97
2017-10-15T06:22:50.896Z,13.43
2017-10-15T06:25:18.658Z,12.43
2017-10-15T06:27:46.421Z,12.30
2017-10-15T06:30:14.242Z,11.57
2017-10-15T06:32:42.127Z,12.20
2017-10-15T06:35:09.856Z,11.30
2017-10-15T06:37:37.689Z,12.40
2017-10-15T06:40:05.469Z,12.00
2017-10-15T06:42:33.278Z,13.53
2017-10-15T06:45:01.103Z,13.10
2017-10-15T06:47:28.851Z,11.90
2017-10-15T06:49:56.652Z,11.73
2017-10-15T06:52:25.330Z,12.27
2017-10-15T06:54:53.093Z,11.33
2017-10-15T06:57:20.952Z,10.70
2017-10-15T06:59:48.765Z,11.67
2017-10-15T07:02:16.605Z,12.20
2017-10-15T07:04:44.427Z,12.17
2017-10-15T07:07:12.279Z,12.57
2017-10-15T07:09:40.082Z,11.00
2017-10-15T07:12:07.922Z,12.73
2017-10-15T07:14:35.759Z,13.20
2017-10-15T07:17:03.597Z,13.33
2017-10-15T07:19:31.508Z,12.77
2017-10-15T07:21:59.371Z,13.07
2017-10-15T07:24:27.200Z,14.50
2017-10-15T07:26:55.039Z,19.63
2017-10-15T07:29:22.945Z,19.43
2017-10-15T07:31:50.812Z,17.83
2017-10-15T07:34:19.470Z,16.57
2017-10-15T07:36:47.433Z,17.87
2017-10-15T07:39:15.234Z,18.10
2017-10-15T07:41:43.038Z,17.63
2017-10-15T07:44:10.831Z,19.53
2017-10-15T07:46:39.152Z,16.57
2017-10-15T07:49:07.104Z,19.10
2017-10-15T07:51:34.890Z,21.33
2017-10-15T07:54:02.687Z,23.03
2017-10-15T07:56:30.540Z,24.13
2017-10-15T07:58:58.332Z,25.83
2017-10-15T08:01:26.084Z,29.17
2017-10-15T08:03:53.873Z,28.17
2017-10-15T08:06:21.743Z,29.97
2017-10-15T08:08:49.548Z,28.37
2017-10-15T08:11:17.330Z,31.07
2017-10-15T08:13:45.129Z,27.83
2017-10-15T08:16:12.894Z,29.70
2017-10-15T08:18:40.626Z,28.33
2017-10-15T08:21:08.569Z,31.70
2017-10-15T08:23:36.412Z,34.10
2017-10-15T08:26:04.257Z,33.63
2017-10-15T08:28:32.064Z,31.63
2017-10-15T08:30:59.868Z,34.07
2017-10-15T08:33:27.615Z,33.50
2017-10-15T08:35:55.992Z,35.77
2017-10-15T08:38:23.732Z,41.23
2017-10-15T08:40:51.460Z,39.03
2017-10-15T08:43:19.270Z,44.57
2017-10-15T08:45:47.074Z,39.47
2017-10-15T08:48:14.848Z,39.50
2017-10-15T08:50:42.678Z,42.27
2017-10-15T08:53:10.466Z,46.20
2017-10-15T08:55:38.244Z,46.17
2017-10-15T08:58:06.087Z,47.63
2017-10-15T09:00:33.870Z,50.87
2017-10-15T09:03:01.692Z,44.77
2017-10-15T09:05:29.490Z,51.17
2017-10-15T09:07:57.312Z,47.43
2017-10-15T09:10:25.136Z,46.90
2017-10-15T09:12:52.876Z,44.33
2017-10-15T09:15:20.718Z,54.07
2017-10-15T09:17:48.486Z,56.20
2017-10-15T09:20:17.155Z,59.27
2017-10-15T09:22:44.975Z,61.97
2017-10-15T09:25:12.767Z,58.43
2017-10-15T09:27:40.592Z,59.73
2017-10-15T09:30:08.376Z,60.90
2017-10-15T09:32:36.201Z,61.70
2017-10-15T09:35:04.104Z,57.20
2017-10-15T09:37:35.352Z,57.53
